M I D A S
Marine Information and Data Acquisition System
Tripno 666 of the Zeeleeuw from 2004-03-12 07:35:30 to 2004-03-12 13:04:31
Back to CruiseResearch ActivitiesStationsMapUnderway DataData graphs

EquipmentUnitsComment
TimeDGPSUTC
LatitudeDGPSDM.mWGS84
LongitudeDGPSDM.mWGS84
HeadingGyrodeg 
SOGDGPSknotsSpeed over ground
COGDGPSdegCourse over ground
DepthEcho soundermeters200 kHz
Missing or incorrect values are displayed as -999
Navigation data collected by the RV Zeeleeuw from 2004-03-12 07:35:30 to 2004-03-12 13:04:31
                                                                                    Next 1000 lines
Time Latitude Longitude Heading SOG COG Depth
2004-03-12 07:35:38 51°13.673 2°55.768 101.4 2.6 284 10.5
2004-03-12 07:35:43 51°13.673 2°55.765 97.5 1.7 290 10.6
2004-03-12 07:35:49 51°13.674 2°55.763 93.9 1.5 293 10.7
2004-03-12 07:35:53 51°13.675 2°55.762 87.2 0.8 305 11
2004-03-12 07:35:59 51°13.676 2°55.762 81.8 0.8 2 11.3
2004-03-12 07:36:03 51°13.677 2°55.764 74.7 0.9 32 11.7
2004-03-12 07:36:09 51°13.678 2°55.765 66.9 1.2 26 11.9
2004-03-12 07:36:14 51°13.68 2°55.766 60.8 1 21 12.6
2004-03-12 07:36:19 51°13.68 2°55.765 55.8 0.6 1 12.9
2004-03-12 07:36:24 51°13.68 2°55.764 52.2 0.5 310 12.9
2004-03-12 07:36:29 51°13.68 2°55.762 48 0.9 259 12.8
2004-03-12 07:36:33 51°13.679 2°55.759 44.3 1 251 12.6
2004-03-12 07:36:39 51°13.678 2°55.756 40.8 1.7 234 12.3
2004-03-12 07:36:45 51°13.676 2°55.752 36.8 1.7 232 -999
2004-03-12 07:36:49 51°13.675 2°55.751 33.7 1.1 242 -999
2004-03-12 07:36:54 51°13.676 2°55.749 29.2 0.6 274 -999
2004-03-12 07:36:59 51°13.677 2°55.749 20.9 0.9 335 -999
2004-03-12 07:37:03 51°13.679 2°55.748 11.5 1.5 347 -999
2004-03-12 07:37:09 51°13.683 2°55.747 3.7 1.9 341 -999
2004-03-12 07:37:14 51°13.685 2°55.745 356.4 2 341 13.5
2004-03-12 07:37:19 51°13.688 2°55.743 352 2 341 13.7
2004-03-12 07:37:23 51°13.69 2°55.741 347.4 2.2 333 13.6
2004-03-12 07:37:27 51°13.692 2°55.739 344.1 2.2 333 12.6
2004-03-12 07:37:33 51°13.695 2°55.736 340.6 2.3 328 12.6
2004-03-12 07:37:39 51°13.698 2°55.732 338 2.4 327 13.8
2004-03-12 07:37:43 51°13.701 2°55.73 336.1 2.6 325 13.7
2004-03-12 07:37:49 51°13.706 2°55.725 335.5 3.5 325 12.4
2004-03-12 07:37:53 51°13.71 2°55.721 336.2 3.9 329 11.6
2004-03-12 07:37:58 51°13.715 2°55.716 338.2 4.4 330 11.3
2004-03-12 07:38:03 51°13.722 2°55.711 338.9 4.9 330 10.9
2004-03-12 07:38:09 51°13.73 2°55.703 339.1 5.4 332 10.5
2004-03-12 07:38:13 51°13.736 2°55.698 339.1 5.8 332 10.3
2004-03-12 07:38:19 51°13.745 2°55.691 339.3 6.2 333 9.9
2004-03-12 07:38:24 51°13.753 2°55.685 339.9 6.4 334 9.9
2004-03-12 07:38:29 51°13.761 2°55.678 340.2 6.6 334 9.9
2004-03-12 07:38:33 51°13.768 2°55.673 340.4 6.9 335 10
2004-03-12 07:38:39 51°13.778 2°55.665 340.8 7 335 9.9
2004-03-12 07:38:43 51°13.786 2°55.66 341.1 7.1 335 9.8
2004-03-12 07:38:49 51°13.797 2°55.652 341.4 7.3 335 9.9
2004-03-12 07:38:53 51°13.804 2°55.647 341.6 7.4 336 9.9
2004-03-12 07:38:59 51°13.816 2°55.638 341.2 7.5 335 9.8
2004-03-12 07:39:03 51°13.823 2°55.633 341.5 7.6 337 9.8
2004-03-12 07:39:09 51°13.835 2°55.625 341.8 7.6 337 9.7
2004-03-12 07:39:13 51°13.843 2°55.62 341.8 7.7 336 9.6
2004-03-12 07:39:19 51°13.855 2°55.611 341.6 7.8 336 9.4
2004-03-12 07:39:23 51°13.863 2°55.606 341.6 7.8 336 9.4
2004-03-12 07:39:29 51°13.875 2°55.598 341.6 7.9 336 9.4
2004-03-12 07:39:34 51°13.885 2°55.59 341.2 8 336 9.4
2004-03-12 07:39:37 51°13.892 2°55.586 341.4 8 337 9.4
2004-03-12 07:39:43 51°13.904 2°55.577 341.5 8.1 336 9.2
2004-03-12 07:39:49 51°13.917 2°55.569 341.2 8.1 336 9.6
2004-03-12 07:39:54 51°13.927 2°55.561 341.1 8.2 335 9.6
2004-03-12 07:39:58 51°13.935 2°55.555 340.9 8.2 335 9.6
2004-03-12 07:40:04 51°13.948 2°55.546 340.9 8.2 335 9.6
2004-03-12 07:40:09 51°13.959 2°55.539 340.9 8.3 335 9.9
2004-03-12 07:40:13 51°13.967 2°55.532 340.9 8.3 336 9.9
2004-03-12 07:40:19 51°13.979 2°55.523 340.8 8.3 335 9.9
2004-03-12 07:40:23 51°13.988 2°55.517 340.5 8.3 335 10
2004-03-12 07:40:29 51°14 2°55.508 341.1 8.4 336 9.8
2004-03-12 07:40:33 51°14.009 2°55.502 341.8 8.4 336 10
2004-03-12 07:40:38 51°14.02 2°55.494 342 8.6 336 10.3
2004-03-12 07:40:43 51°14.031 2°55.486 341.6 8.7 335 10.2
2004-03-12 07:40:49 51°14.044 2°55.477 341.6 8.7 336 11
2004-03-12 07:40:53 51°14.053 2°55.47 341.6 8.8 335 10.2
2004-03-12 07:40:59 51°14.067 2°55.461 341.8 8.9 336 10.3
2004-03-12 07:41:03 51°14.076 2°55.454 341.9 8.9 335 10.3
2004-03-12 07:41:07 51°14.085 2°55.447 341.1 9 335 10.3
2004-03-12 07:41:13 51°14.098 2°55.437 340.4 9 334 10.2
2004-03-12 07:41:19 51°14.112 2°55.426 340.2 9 334 10.3
2004-03-12 07:41:23 51°14.12 2°55.419 340 9 334 10.4
2004-03-12 07:41:29 51°14.134 2°55.407 338.7 9.1 332 10.3
2004-03-12 07:41:33 51°14.144 2°55.399 337.5 9.3 332 10.3
2004-03-12 07:41:39 51°14.158 2°55.386 336.7 9.9 330 10.3
2004-03-12 07:41:43 51°14.168 2°55.376 335.4 10.3 328 10.3
2004-03-12 07:41:49 51°14.183 2°55.361 333.5 10.4 328 10.3
2004-03-12 07:41:54 51°14.195 2°55.347 332.4 10.6 326 10.3
2004-03-12 07:41:59 51°14.208 2°55.333 331.4 10.9 325 10.3
2004-03-12 07:42:04 51°14.22 2°55.317 329.6 11.1 323 10.3
2004-03-12 07:42:07 51°14.227 2°55.308 327.5 11.3 321 10.2
2004-03-12 07:42:13 51°14.241 2°55.288 325.8 11.3 319 10.2
2004-03-12 07:42:19 51°14.255 2°55.266 324 11.5 317 10.2
2004-03-12 07:42:23 51°14.263 2°55.251 321.4 11.7 314 10.2
2004-03-12 07:42:29 51°14.277 2°55.228 319.6 11.8 313 10.3
2004-03-12 07:42:34 51°14.288 2°55.209 319.2 12 312 10.2
2004-03-12 07:42:39 51°14.299 2°55.188 318.6 12.1 312 10.2
2004-03-12 07:42:43 51°14.307 2°55.171 316.3 12.2 309 10.2
2004-03-12 07:42:49 51°14.32 2°55.145 314.1 12.3 307 10.3
2004-03-12 07:42:53 51°14.328 2°55.127 313.1 12.4 307 10.2
2004-03-12 07:42:59 51°14.34 2°55.101 312.6 12.4 307 10.9
2004-03-12 07:43:03 51°14.348 2°55.083 312.5 12.4 307 10.2
2004-03-12 07:43:09 51°14.36 2°55.057 312.4 12.5 306 10.4
2004-03-12 07:43:14 51°14.37 2°55.034 312 12.5 305 10.4
2004-03-12 07:43:19 51°14.38 2°55.011 311.3 12.5 305 10.5
2004-03-12 07:43:23 51°14.388 2°54.993 310.7 12.6 304 10.4
2004-03-12 07:43:29 51°14.4 2°54.965 310.1 12.6 303 10.3
2004-03-12 07:43:33 51°14.408 2°54.946 310.6 12.6 305 10.7
2004-03-12 07:43:39 51°14.42 2°54.919 311.8 12.7 305 10.5
2004-03-12 07:43:43 51°14.428 2°54.902 313.5 12.5 307 10.4
2004-03-12 07:43:49 51°14.441 2°54.877 315.7 12.2 308 10.4
2004-03-12 07:43:53 51°14.449 2°54.862 317.8 11.5 310 10.4
2004-03-12 07:43:57 51°14.457 2°54.847 320 11.1 312 10.4
2004-03-12 07:44:03 51°14.469 2°54.827 322 10.8 313 10.4
2004-03-12 07:44:08 51°14.479 2°54.81 323.5 10.4 314 10.3
2004-03-12 07:44:13 51°14.489 2°54.794 324.3 10.2 314 10.4
2004-03-12 07:44:19 51°14.5 2°54.776 324.4 9.9 314 10.2
2004-03-12 07:44:23 51°14.508 2°54.763 324.4 9.6 314 10.3
2004-03-12 07:44:29 51°14.519 2°54.745 324.5 9.5 314 10.1
2004-03-12 07:44:33 51°14.526 2°54.734 324.7 9.2 314 10.1
2004-03-12 07:44:37 51°14.533 2°54.722 325 9.1 314 10.1
2004-03-12 07:44:43 51°14.544 2°54.706 325.3 9 315 10.2
2004-03-12 07:44:49 51°14.554 2°54.689 325.8 8.8 315 10.1
2004-03-12 07:44:54 51°14.563 2°54.676 326.1 8.7 316 10
2004-03-12 07:44:59 51°14.571 2°54.663 326.6 8.6 316 10.1
2004-03-12 07:45:03 51°14.578 2°54.653 327 8.5 317 10
2004-03-12 07:45:09 51°14.589 2°54.638 327.3 8.3 318 9.9
2004-03-12 07:45:14 51°14.597 2°54.626 327.9 8.1 318 9.9
2004-03-12 07:45:18 51°14.603 2°54.617 328.5 7.8 319 9.8
2004-03-12 07:45:24 51°14.613 2°54.604 329.2 7.5 319 9.8
2004-03-12 07:45:29 51°14.62 2°54.595 330.7 7.2 320 9.8
2004-03-12 07:45:33 51°14.626 2°54.587 332.4 6.7 322 9.8
2004-03-12 07:45:38 51°14.633 2°54.579 334.5 6.5 324 9.8
2004-03-12 07:45:44 51°14.642 2°54.57 336.4 6.3 325 9.8
2004-03-12 07:45:49 51°14.649 2°54.563 338.7 6 327 9.8
2004-03-12 07:45:53 51°14.654 2°54.558 340.8 5.9 328 9.8
2004-03-12 07:45:59 51°14.662 2°54.551 342.8 5.4 331 9.7
2004-03-12 07:46:04 51°14.668 2°54.546 344.7 5.2 331 9.8
2004-03-12 07:46:09 51°14.674 2°54.541 346.2 5.1 333 9.8
2004-03-12 07:46:13 51°14.679 2°54.537 347.9 4.7 334 9.8
2004-03-12 07:46:19 51°14.685 2°54.533 349.4 4.6 336 9.8
2004-03-12 07:46:23 51°14.69 2°54.529 350.6 4.5 335 9.8
2004-03-12 07:46:29 51°14.696 2°54.525 351.7 4.3 337 9.8
2004-03-12 07:46:33 51°14.7 2°54.522 353.4 4.2 337 9.7
2004-03-12 07:46:39 51°14.706 2°54.519 354.3 3.9 338 9.8
2004-03-12 07:46:43 51°14.711 2°54.516 354.9 3.8 338 9.7
2004-03-12 07:46:49 51°14.716 2°54.513 355.2 3.8 338 9.7
2004-03-12 07:46:53 51°14.72 2°54.51 355.6 3.5 338 9.7
2004-03-12 07:46:59 51°14.725 2°54.507 355.6 3.5 338 9.6
2004-03-12 07:47:03 51°14.729 2°54.504 355.9 3.3 337 9.7
2004-03-12 07:47:09 51°14.734 2°54.501 356 3.3 338 9.7
2004-03-12 07:47:13 51°14.737 2°54.499 356.1 3.2 337 9.7
2004-03-12 07:47:19 51°14.741 2°54.495 356.3 3.1 338 9.7
2004-03-12 07:47:23 51°14.744 2°54.493 356.5 3 336 9.7
2004-03-12 07:47:29 51°14.749 2°54.49 356.7 3 336 9.7
2004-03-12 07:47:33 51°14.752 2°54.488 357 2.9 336 9.8
2004-03-12 07:47:39 51°14.756 2°54.485 357.2 2.9 336 9.6
2004-03-12 07:47:43 51°14.759 2°54.483 357.6 2.8 336 9.7
2004-03-12 07:47:49 51°14.763 2°54.48 357.7 2.7 336 9.6
2004-03-12 07:47:53 51°14.766 2°54.478 357.8 2.7 336 9.7
2004-03-12 07:47:59 51°14.77 2°54.475 357.8 2.6 336 9.6
2004-03-12 07:48:04 51°14.773 2°54.473 357.9 2.6 335 9.6
2004-03-12 07:48:09 51°14.776 2°54.471 358 2.5 335 9.6
2004-03-12 07:48:14 51°14.779 2°54.468 358.1 2.5 334 9.6
2004-03-12 07:48:19 51°14.783 2°54.466 358.2 2.4 334 9.6
2004-03-12 07:48:23 51°14.785 2°54.464 358.4 2.4 333 9.6
2004-03-12 07:48:29 51°14.788 2°54.461 358.4 2.4 333 9.6
2004-03-12 07:48:33 51°14.791 2°54.459 358.5 2.3 333 9.6
2004-03-12 07:48:39 51°14.794 2°54.456 358.8 2.3 333 9.6
2004-03-12 07:48:43 51°14.797 2°54.454 359.1 2.2 333 9.6
2004-03-12 07:48:49 51°14.8 2°54.451 359.4 2.3 334 9.5
2004-03-12 07:48:53 51°14.803 2°54.45 359.9 2.6 334 9.5
2004-03-12 07:48:59 51°14.807 2°54.446 358.9 3 335 9.5
2004-03-12 07:49:03 51°14.811 2°54.443 355.1 3.6 332 9.5
2004-03-12 07:49:09 51°14.817 2°54.437 349.2 3.6 332 9.5
2004-03-12 07:49:13 51°14.821 2°54.432 341.9 4.7 328 9.5
2004-03-12 07:49:19 51°14.829 2°54.422 333.9 6 320 9.5
2004-03-12 07:49:23 51°14.835 2°54.415 330.3 7 323 9.5
2004-03-12 07:49:29 51°14.846 2°54.402 330.8 7 323 9.4
2004-03-12 07:49:34 51°14.856 2°54.392 333.2 8.6 327 9.3
2004-03-12 07:49:39 51°14.866 2°54.381 335.3 9.1 327 9.2
2004-03-12 07:49:43 51°14.876 2°54.372 335.9 9.8 327 9.1
2004-03-12 07:49:49 51°14.89 2°54.357 335.6 9.8 327 9
2004-03-12 07:49:53 51°14.9 2°54.346 335.3 11 327 8.8
2004-03-12 07:49:59 51°14.916 2°54.329 335 11.5 327 8.8
2004-03-12 07:50:03 51°14.927 2°54.318 334.6 12.1 327 8.7
2004-03-12 07:50:09 51°14.944 2°54.299 334.1 12.2 326 8.6
2004-03-12 07:50:13 51°14.956 2°54.287 333.8 12.7 326 8.4
2004-03-12 07:50:19 51°14.974 2°54.268 333.7 12.7 326 8.3
2004-03-12 07:50:23 51°14.986 2°54.255 333.8 13 326 8.2
2004-03-12 07:50:29 51°15.004 2°54.236 333.9 13.2 327 8.2
2004-03-12 07:50:33 51°15.016 2°54.223 334.2 13.2 327 8.2
2004-03-12 07:50:39 51°15.035 2°54.204 334.4 13.3 327 8.2
2004-03-12 07:50:43 51°15.047 2°54.19 334 13.5 326 8.2
2004-03-12 07:50:47 51°15.06 2°54.177 333.2 13.5 326 8.3
2004-03-12 07:50:53 51°15.078 2°54.156 332.9 13.6 325 8.4
2004-03-12 07:50:59 51°15.096 2°54.135 332.3 13.6 325 8.4
2004-03-12 07:51:03 51°15.109 2°54.121 331.7 13.8 324 8.5
2004-03-12 07:51:09 51°15.128 2°54.099 331.3 13.8 324 8.5
2004-03-12 07:51:13 51°15.14 2°54.084 331.1 13.9 324 8.6
2004-03-12 07:51:19 51°15.159 2°54.063 331.1 13.9 324 8.7
2004-03-12 07:51:23 51°15.172 2°54.049 331.5 14 325 8.7
2004-03-12 07:51:29 51°15.191 2°54.028 332 14 325 8.8
2004-03-12 07:51:33 51°15.204 2°54.015 333.2 14 328 8.8
2004-03-12 07:51:39 51°15.225 2°53.996 335.1 14 330 8.9
2004-03-12 07:51:43 51°15.238 2°53.985 337.1 14.1 332 8.9
2004-03-12 07:51:49 51°15.259 2°53.968 339.3 14.1 332 8.9
2004-03-12 07:51:53 51°15.274 2°53.958 341.8 14.1 336 8.9
2004-03-12 07:51:59 51°15.295 2°53.943 343.4 14 336 9.3
2004-03-12 07:52:03 51°15.31 2°53.934 344.5 14.1 337 9.2
2004-03-12 07:52:09 51°15.331 2°53.919 345.3 14.1 338 9.2
2004-03-12 07:52:13 51°15.346 2°53.91 345.6 14.1 337 9.5
2004-03-12 07:52:19 51°15.367 2°53.894 344.6 14 334 9.4
2004-03-12 07:52:23 51°15.381 2°53.882 343.1 14.1 332 9.4
2004-03-12 07:52:29 51°15.401 2°53.864 341.1 14.1 332 9.7
2004-03-12 07:52:33 51°15.415 2°53.851 339.6 14.2 330 9.5
2004-03-12 07:52:39 51°15.435 2°53.832 338.6 14.2 329 9.6
2004-03-12 07:52:43 51°15.449 2°53.819 337.9 14.2 329 9.7
2004-03-12 07:52:49 51°15.469 2°53.8 337.5 14.2 329 9.7
2004-03-12 07:52:54 51°15.486 2°53.784 337.5 14.2 330 9.9
2004-03-12 07:52:59 51°15.504 2°53.769 338.2 14.2 330 9.8
2004-03-12 07:53:03 51°15.517 2°53.757 339.1 14.3 332 9.9
2004-03-12 07:53:09 51°15.538 2°53.739 340.3 14.3 332 10
2004-03-12 07:53:13 51°15.552 2°53.728 340.7 14.3 332 10.1
2004-03-12 07:53:19 51°15.574 2°53.712 341.7 14.3 334 10.2
2004-03-12 07:53:23 51°15.588 2°53.701 342.5 14.2 335 10.3
2004-03-12 07:53:29 51°15.609 2°53.685 343 14.2 335 10.4
2004-03-12 07:53:34 51°15.627 2°53.672 343.4 14.2 336 10.4
2004-03-12 07:53:39 51°15.645 2°53.658 343.7 14.2 335 10.5
2004-03-12 07:53:43 51°15.66 2°53.648 343.6 14.3 335 10.5
2004-03-12 07:53:49 51°15.681 2°53.631 343.1 14.3 335 10.6
2004-03-12 07:53:53 51°15.695 2°53.62 342.8 14.2 334 10.6
2004-03-12 07:53:59 51°15.717 2°53.604 342.6 14.2 334 10.7
2004-03-12 07:54:03 51°15.731 2°53.592 342.8 14.2 334 10.8
2004-03-12 07:54:09 51°15.752 2°53.576 342.6 14.2 334 10.9
2004-03-12 07:54:13 51°15.766 2°53.565 342.5 14.3 334 10.9
2004-03-12 07:54:19 51°15.788 2°53.548 342.5 14.2 334 10.9
2004-03-12 07:54:23 51°15.802 2°53.537 342.5 14.2 334 10.9
2004-03-12 07:54:29 51°15.823 2°53.52 342.3 14.3 333 11
2004-03-12 07:54:33 51°15.837 2°53.508 342.1 14.3 333 11
2004-03-12 07:54:39 51°15.858 2°53.492 342 14.3 334 11
2004-03-12 07:54:43 51°15.873 2°53.481 342.5 14.3 334 11
2004-03-12 07:54:49 51°15.894 2°53.464 342.7 14.3 334 11.1
2004-03-12 07:54:53 51°15.908 2°53.453 343.1 14.2 335 11.1
2004-03-12 07:54:59 51°15.93 2°53.437 343.2 14.2 335 11.2
2004-03-12 07:55:03 51°15.944 2°53.426 342.9 14.3 334 11.3
2004-03-12 07:55:09 51°15.965 2°53.409 342.8 14.3 334 11.3
2004-03-12 07:55:14 51°15.983 2°53.396 342.7 14.3 335 11.3
2004-03-12 07:55:19 51°16.001 2°53.382 342.8 14.3 335 11.4
2004-03-12 07:55:24 51°16.019 2°53.369 343.2 14.3 335 11.4
2004-03-12 07:55:27 51°16.03 2°53.361 343.2 14.3 334 11.3
2004-03-12 07:55:33 51°16.051 2°53.345 343.1 14.3 335 11.4
2004-03-12 07:55:39 51°16.072 2°53.328 342.8 14.3 334 11.5
2004-03-12 07:55:43 51°16.087 2°53.318 342.7 14.3 335 11.5
2004-03-12 07:55:49 51°16.109 2°53.302 343.1 14.3 335 11.6
2004-03-12 07:55:53 51°16.123 2°53.291 343.2 14.3 335 11.6
2004-03-12 07:55:59 51°16.145 2°53.275 343.2 14.3 335 11.6
2004-03-12 07:56:03 51°16.159 2°53.264 342.8 14.3 335 11.5
2004-03-12 07:56:09 51°16.181 2°53.248 342.5 14.3 335 11.6
2004-03-12 07:56:13 51°16.195 2°53.238 342.5 14.3 335 11.7
2004-03-12 07:56:19 51°16.217 2°53.221 342.5 14.3 335 11.7
2004-03-12 07:56:23 51°16.231 2°53.211 342.6 14.3 335 11.7
2004-03-12 07:56:29 51°16.252 2°53.195 342.7 14.3 335 11.7
2004-03-12 07:56:33 51°16.267 2°53.184 342.9 14.3 335 11.7
2004-03-12 07:56:39 51°16.288 2°53.168 342.9 14.3 335 11.7
2004-03-12 07:56:43 51°16.303 2°53.157 342.5 14.3 335 11.7
2004-03-12 07:56:49 51°16.324 2°53.141 342.2 14.3 334 11.7
2004-03-12 07:56:51 51°16.331 2°53.136 342.1 14.3 334 11.7
2004-03-12 07:56:59 51°16.36 2°53.114 341.9 14.3 334 11.7
2004-03-12 07:57:03 51°16.374 2°53.103 341.9 14.3 335 11.8
2004-03-12 07:57:09 51°16.396 2°53.087 341.8 14.3 334 11.7
2004-03-12 07:57:11 51°16.403 2°53.081 341.8 14.2 334 11.6
2004-03-12 07:57:19 51°16.431 2°53.06 342.2 14.3 335 11.7
2004-03-12 07:57:23 51°16.446 2°53.05 342.4 14.2 335 11.7
2004-03-12 07:57:29 51°16.467 2°53.034 342.6 14.2 335 11.7
2004-03-12 07:57:33 51°16.482 2°53.023 342.6 14.3 335 11.6
2004-03-12 07:57:39 51°16.503 2°53.007 342.5 14.3 335 11.7
2004-03-12 07:57:43 51°16.517 2°52.996 342.3 14.2 335 11.5
2004-03-12 07:57:49 51°16.539 2°52.98 342.2 14.3 335 11.4
2004-03-12 07:57:53 51°16.553 2°52.969 341.9 14.2 334 11.3
2004-03-12 07:57:57 51°16.567 2°52.958 341.7 14.2 334 11.4
2004-03-12 07:58:03 51°16.588 2°52.941 341.4 14.2 334 11.2
2004-03-12 07:58:09 51°16.61 2°52.925 341.3 14.2 335 11
2004-03-12 07:58:13 51°16.624 2°52.914 341.8 14.2 335 11.1
2004-03-12 07:58:19 51°16.645 2°52.898 342.4 14.2 335 11.1
2004-03-12 07:58:23 51°16.659 2°52.887 342.7 14.2 335 10.8
2004-03-12 07:58:29 51°16.681 2°52.871 342.5 14.2 335 10.8
2004-03-12 07:58:33 51°16.695 2°52.861 342.5 14.2 335 10.6
2004-03-12 07:58:39 51°16.716 2°52.845 342.5 14.2 335 10.4
2004-03-12 07:58:43 51°16.731 2°52.835 342.5 14.2 335 10.2
2004-03-12 07:58:49 51°16.752 2°52.819 342.5 14.2 335 10.1
2004-03-12 07:58:53 51°16.766 2°52.808 342.5 14 335 9.4
2004-03-12 07:58:59 51°16.787 2°52.792 342.5 13.9 335 9
2004-03-12 07:59:04 51°16.804 2°52.779 342.5 13.9 335 9
2004-03-12 07:59:09 51°16.821 2°52.767 342.3 13.8 335 9.2
2004-03-12 07:59:14 51°16.839 2°52.753 342.1 13.8 334 9
2004-03-12 07:59:19 51°16.856 2°52.74 341.9 13.9 335 8.9
2004-03-12 07:59:23 51°16.87 2°52.729 341.8 13.8 334 8.7
2004-03-12 07:59:29 51°16.89 2°52.714 341.5 13.8 334 8.8
2004-03-12 07:59:33 51°16.904 2°52.703 341.4 13.9 334 8.8
2004-03-12 07:59:39 51°16.925 2°52.687 341.4 13.9 335 9
2004-03-12 07:59:44 51°16.943 2°52.674 341.8 13.9 334 9.2
2004-03-12 07:59:49 51°16.96 2°52.661 342 13.9 335 9.3
2004-03-12 07:59:53 51°16.974 2°52.65 342.5 14.1 335 9.5
2004-03-12 07:59:59 51°16.996 2°52.634 342.4 14.1 335 9.6
2004-03-12 08:00:03 51°17.01 2°52.623 342 14.2 334 9.6
2004-03-12 08:00:09 51°17.031 2°52.606 341.5 14.2 334 9.5
2004-03-12 08:00:13 51°17.045 2°52.596 341.2 14.2 334 9.1
2004-03-12 08:00:19 51°17.067 2°52.58 341.2 14.2 334 9
2004-03-12 08:00:23 51°17.081 2°52.569 341.5 14 335 9.2
2004-03-12 08:00:29 51°17.102 2°52.553 341.9 13.9 335 9.1
2004-03-12 08:00:33 51°17.116 2°52.543 342.5 13.9 335 9
2004-03-12 08:00:39 51°17.137 2°52.527 342.6 14 335 9.2
2004-03-12 08:00:43 51°17.151 2°52.517 342.5 14 335 9
2004-03-12 08:00:49 51°17.172 2°52.5 342.2 14.1 334 9.3
2004-03-12 08:00:54 51°17.19 2°52.486 341.2 14.1 333 9.4
2004-03-12 08:00:59 51°17.207 2°52.471 339.5 14.1 331 9.4
2004-03-12 08:01:03 51°17.22 2°52.459 338.3 14.2 330 9.3
2004-03-12 08:01:09 51°17.241 2°52.439 337.6 14.1 330 9.6
2004-03-12 08:01:13 51°17.254 2°52.426 336.7 14.1 329 9.7
2004-03-12 08:01:19 51°17.275 2°52.407 336.2 14.2 330 9.7
2004-03-12 08:01:23 51°17.288 2°52.394 336.1 14.3 329 9.6
2004-03-12 08:01:29 51°17.309 2°52.375 336.4 14.3 330 9.7
2004-03-12 08:01:33 51°17.322 2°52.362 337.2 14.3 330 9.6
2004-03-12 08:01:39 51°17.342 2°52.341 335.9 14.3 327 9.8
2004-03-12 08:01:43 51°17.355 2°52.327 334.2 14.3 326 9.9
2004-03-12 08:01:49 51°17.375 2°52.305 332.8 14.3 324 9.7
2004-03-12 08:01:53 51°17.388 2°52.29 331.5 14.3 324 10
2004-03-12 08:01:59 51°17.406 2°52.267 330.3 14.3 323 10
2004-03-12 08:02:03 51°17.419 2°52.252 329.6 14.3 323 9.9
2004-03-12 08:02:09 51°17.438 2°52.229 329.7 14.3 323 9.7
2004-03-12 08:02:14 51°17.454 2°52.21 329.4 14.3 323 9.8
2004-03-12 08:02:19 51°17.47 2°52.191 329.5 14.3 323 9.9
2004-03-12 08:02:23 51°17.483 2°52.176 329.8 14.2 324 9.9
2004-03-12 08:02:29 51°17.502 2°52.154 330.8 14.2 324 10
2004-03-12 08:02:33 51°17.514 2°52.139 331.2 14.3 324 9.9
2004-03-12 08:02:39 51°17.534 2°52.117 331.4 14.3 324 10.1
2004-03-12 08:02:43 51°17.546 2°52.102 331.1 14.3 322 10
2004-03-12 08:02:49 51°17.564 2°52.077 329.2 14.3 320 9.8
2004-03-12 08:02:53 51°17.576 2°52.059 326.2 14.3 318 9.8
2004-03-12 08:02:59 51°17.593 2°52.033 324.6 14.3 316 10
2004-03-12 08:03:03 51°17.604 2°52.015 323.1 14.3 315 10
2004-03-12 08:03:09 51°17.621 2°51.988 322.2 14.3 314 9.8
2004-03-12 08:03:13 51°17.632 2°51.97 321.5 14.3 314 9.9
2004-03-12 08:03:19 51°17.649 2°51.943 321.3 14.3 314 9.8
2004-03-12 08:03:23 51°17.66 2°51.925 321.3 14.3 314 9.9
2004-03-12 08:03:29 51°17.676 2°51.898 321.5 14.3 314 9.7
2004-03-12 08:03:34 51°17.69 2°51.875 321.5 14.3 315 9.8
2004-03-12 08:03:39 51°17.704 2°51.853 321.7 14.3 314 9.8
2004-03-12 08:03:43 51°17.715 2°51.835 321.7 14.3 314 9.6
2004-03-12 08:03:49 51°17.732 2°51.808 321.6 14.3 314 9.6
2004-03-12 08:03:53 51°17.743 2°51.79 321.8 14.3 315 9.5
2004-03-12 08:03:59 51°17.76 2°51.763 321.9 14.3 315 9.6
2004-03-12 08:04:04 51°17.774 2°51.74 321.8 14.4 315 9.6
2004-03-12 08:04:09 51°17.788 2°51.718 321.8 14.4 315 9.4
2004-03-12 08:04:13 51°17.799 2°51.7 322 14.3 315 9.6
2004-03-12 08:04:19 51°17.816 2°51.673 321.8 14.3 315 9.6
2004-03-12 08:04:23 51°17.827 2°51.655 321.7 14.3 314 9.5
2004-03-12 08:04:29 51°17.844 2°51.629 321.5 14.3 315 9.7
2004-03-12 08:04:34 51°17.858 2°51.606 322.2 14.4 315 9.6
2004-03-12 08:04:39 51°17.872 2°51.584 322 14.4 315 9.7
2004-03-12 08:04:43 51°17.884 2°51.566 322 14.4 315 9.8
2004-03-12 08:04:49 51°17.9 2°51.538 321.9 14.4 314 9.8
2004-03-12 08:04:53 51°17.912 2°51.52 321.6 14.4 315 9.9
2004-03-12 08:04:59 51°17.928 2°51.492 321.6 14.4 314 10
2004-03-12 08:05:03 51°17.94 2°51.474 321.7 14.5 314 10.1
2004-03-12 08:05:09 51°17.956 2°51.447 321.4 14.5 314 10.1
2004-03-12 08:05:14 51°17.97 2°51.424 321.2 14.5 315 10.3
2004-03-12 08:05:19 51°17.985 2°51.401 321.5 14.5 315 10.3
2004-03-12 08:05:23 51°17.996 2°51.383 322.2 14.6 315 10.6
2004-03-12 08:05:29 51°18.014 2°51.356 322.6 14.6 315 10.6
2004-03-12 08:05:33 51°18.025 2°51.338 322.6 14.6 315 10.8
2004-03-12 08:05:39 51°18.043 2°51.311 322.5 14.6 315 11
2004-03-12 08:05:43 51°18.054 2°51.292 322.3 14.6 315 10.9
2004-03-12 08:05:49 51°18.072 2°51.265 322.1 14.6 316 11
2004-03-12 08:05:54 51°18.086 2°51.243 322.3 14.6 316 11.1
2004-03-12 08:05:59 51°18.1 2°51.219 322.8 14.6 315 11.3
2004-03-12 08:06:03 51°18.112 2°51.202 322.5 14.6 316 11.5
2004-03-12 08:06:09 51°18.13 2°51.174 322.6 14.6 316 11.6
2004-03-12 08:06:13 51°18.141 2°51.156 322.7 14.6 316 11.7
2004-03-12 08:06:19 51°18.159 2°51.129 322.7 14.6 316 11.8
2004-03-12 08:06:24 51°18.173 2°51.107 322.5 14.5 316 11.9
2004-03-12 08:06:29 51°18.187 2°51.084 322.2 14.5 315 12.1
2004-03-12 08:06:33 51°18.198 2°51.066 322 14.5 315 12.3
2004-03-12 08:06:39 51°18.215 2°51.038 322.1 14.5 314 12.2
2004-03-12 08:06:43 51°18.225 2°51.018 319.4 14.5 311 12.5
2004-03-12 08:06:49 51°18.241 2°50.989 317.7 14.5 309 12.5
2004-03-12 08:06:53 51°18.251 2°50.968 316.4 14.6 309 12.5
2004-03-12 08:06:59 51°18.266 2°50.938 315.4 14.5 308 12.7
2004-03-12 08:07:03 51°18.275 2°50.917 314.7 14.6 307 12.7
2004-03-12 08:07:09 51°18.29 2°50.886 313.5 14.5 306 12.8
2004-03-12 08:07:13 51°18.3 2°50.866 313.6 14.5 307 12.8
2004-03-12 08:07:19 51°18.314 2°50.835 313.6 14.5 307 12.9
2004-03-12 08:07:23 51°18.324 2°50.815 314 14.5 308 12.9
2004-03-12 08:07:29 51°18.339 2°50.784 314.2 14.5 308 13.1
2004-03-12 08:07:34 51°18.351 2°50.759 314.2 14.5 307 13.1
2004-03-12 08:07:39 51°18.363 2°50.733 314 14.5 307 13.2
2004-03-12 08:07:43 51°18.372 2°50.712 313.5 14.5 306 13.3
2004-03-12 08:07:49 51°18.387 2°50.681 313 14.6 307 13.4
2004-03-12 08:07:53 51°18.396 2°50.66 313.3 14.6 306 13.4
2004-03-12 08:07:59 51°18.411 2°50.629 313.6 14.6 306 13.5
2004-03-12 08:08:03 51°18.421 2°50.608 313.5 14.6 307 13.6
2004-03-12 08:08:09 51°18.435 2°50.577 313.6 14.6 307 13.6
2004-03-12 08:08:13 51°18.445 2°50.557 313.8 14.6 307 13.7
2004-03-12 08:08:19 51°18.46 2°50.526 313.9 14.6 307 13.8
2004-03-12 08:08:23 51°18.469 2°50.505 313.6 14.5 307 13.7
2004-03-12 08:08:29 51°18.484 2°50.474 313.4 14.6 307 13.8
2004-03-12 08:08:34 51°18.496 2°50.449 313.3 14.5 307 13.8
2004-03-12 08:08:39 51°18.508 2°50.423 313.5 14.6 307 13.8
2004-03-12 08:08:43 51°18.518 2°50.403 313.7 14.6 308 13.8
2004-03-12 08:08:49 51°18.533 2°50.372 314 14.6 307 13.8
2004-03-12 08:08:54 51°18.545 2°50.346 314.3 14.6 307 13.8
2004-03-12 08:08:59 51°18.558 2°50.321 314.2 14.6 307 13.9
2004-03-12 08:09:03 51°18.568 2°50.3 314.2 14.6 308 13.9
2004-03-12 08:09:09 51°18.582 2°50.27 314.1 14.6 307 13.8
2004-03-12 08:09:13 51°18.592 2°50.25 313.9 14.6 309 13.8
2004-03-12 08:09:19 51°18.607 2°50.219 314.4 14.7 308 13.5
2004-03-12 08:09:23 51°18.618 2°50.199 314.2 14.7 308 13.4
2004-03-12 08:09:29 51°18.633 2°50.168 314 14.6 309 13.4
2004-03-12 08:09:34 51°18.645 2°50.142 314.6 14.6 307 13.2
2004-03-12 08:09:39 51°18.657 2°50.118 314.1 14.5 308 13.1
2004-03-12 08:09:43 51°18.667 2°50.097 313.8 14.6 307 13.3
2004-03-12 08:09:49 51°18.682 2°50.066 313.1 14.6 308 13.1
2004-03-12 08:09:53 51°18.691 2°50.046 313.5 14.6 308 12.9
2004-03-12 08:09:59 51°18.706 2°50.015 314.2 14.5 308 12.5
2004-03-12 08:10:03 51°18.716 2°49.995 314.4 14.5 308 12.2
2004-03-12 08:10:09 51°18.731 2°49.964 314.5 14.5 308 12.5
2004-03-12 08:10:14 51°18.743 2°49.939 313.9 14.5 308 12.3
2004-03-12 08:10:19 51°18.756 2°49.913 314.5 14.5 308 12.1
2004-03-12 08:10:23 51°18.765 2°49.893 314 14.5 307 12
2004-03-12 08:10:29 51°18.78 2°49.862 314.2 14.5 308 11.8
2004-03-12 08:10:33 51°18.79 2°49.842 314 14.5 307 11.5
2004-03-12 08:10:39 51°18.805 2°49.812 314.2 14.5 308 10.7
2004-03-12 08:10:44 51°18.817 2°49.787 315 14.4 309 10.5
2004-03-12 08:10:49 51°18.829 2°49.761 314.7 14.4 307 10.7
2004-03-12 08:10:53 51°18.839 2°49.741 314.3 14.4 307 10.7
2004-03-12 08:10:59 51°18.854 2°49.711 314.1 14.4 307 10.6
2004-03-12 08:11:03 51°18.863 2°49.69 314 14.5 307 10.2
2004-03-12 08:11:09 51°18.878 2°49.659 314 14.6 307 10.4
2004-03-12 08:11:13 51°18.888 2°49.638 314 14.5 307 10.1
2004-03-12 08:11:19 51°18.902 2°49.608 313.7 14.5 307 10.1
2004-03-12 08:11:23 51°18.912 2°49.587 314 14.5 307 9.9
2004-03-12 08:11:29 51°18.927 2°49.557 313.6 14.6 307 10
2004-03-12 08:11:34 51°18.939 2°49.53 313.7 14.6 307 10.1
2004-03-12 08:11:39 51°18.951 2°49.505 314.3 14.6 308 10.3
2004-03-12 08:11:43 51°18.961 2°49.484 314 14.7 307 10.5
2004-03-12 08:11:49 51°18.977 2°49.453 314.5 14.7 308 10.4
2004-03-12 08:11:53 51°18.987 2°49.433 314.5 14.8 308 10.7
2004-03-12 08:11:59 51°19.002 2°49.401 314.4 14.8 308 10.8
2004-03-12 08:12:03 51°19.012 2°49.381 314.2 14.8 308 11.2
2004-03-12 08:12:09 51°19.027 2°49.35 314.4 14.9 308 11.4
2004-03-12 08:12:13 51°19.037 2°49.328 314.2 14.9 307 11.6
2004-03-12 08:12:19 51°19.051 2°49.296 313.5 14.9 306 11.7
2004-03-12 08:12:23 51°19.061 2°49.275 312.7 15 306 11.7
2004-03-12 08:12:29 51°19.076 2°49.243 312.5 15 306 11.9
2004-03-12 08:12:33 51°19.086 2°49.222 313.1 14.9 306 11.9
2004-03-12 08:12:39 51°19.101 2°49.191 312.9 14.9 307 11.8
2004-03-12 08:12:43 51°19.111 2°49.17 313.6 14.9 307 11.7
2004-03-12 08:12:49 51°19.126 2°49.139 313.6 14.8 308 11.8
2004-03-12 08:12:53 51°19.136 2°49.118 314.6 14.8 307 11.7
2004-03-12 08:12:59 51°19.151 2°49.086 313.8 14.8 307 11.6
2004-03-12 08:13:03 51°19.161 2°49.066 314.2 14.8 308 12
2004-03-12 08:13:09 51°19.176 2°49.035 314.2 14.7 308 12.5
2004-03-12 08:13:14 51°19.188 2°49.008 314.3 14.8 307 13.2
2004-03-12 08:13:19 51°19.2 2°48.982 313.6 14.9 306 13.6
2004-03-12 08:13:23 51°19.21 2°48.961 314 14.9 307 14
2004-03-12 08:13:29 51°19.225 2°48.929 313.1 14.9 306 14.2
2004-03-12 08:13:34 51°19.238 2°48.903 313.3 14.9 308 14.5
2004-03-12 08:13:39 51°19.251 2°48.877 314.4 14.9 307 14.8
2004-03-12 08:13:43 51°19.261 2°48.856 314.2 14.8 308 14.9
2004-03-12 08:13:49 51°19.276 2°48.825 314.8 14.8 308 15.1
2004-03-12 08:13:53 51°19.286 2°48.805 314.6 14.7 307 15.2
2004-03-12 08:13:59 51°19.3 2°48.773 314.2 14.6 307 15.4
2004-03-12 08:14:03 51°19.31 2°48.752 313.9 14.7 306 15.6
2004-03-12 08:14:09 51°19.323 2°48.719 311.3 14.7 306 15.7
2004-03-12 08:14:13 51°19.331 2°48.697 308.7 14.7 302 15.9
2004-03-12 08:14:19 51°19.343 2°48.662 305.4 14.7 298 16.2
2004-03-12 08:14:23 51°19.35 2°48.639 304.2 14.6 298 16.5
2004-03-12 08:14:29 51°19.36 2°48.604 302.6 14.7 295 16.6
2004-03-12 08:14:33 51°19.368 2°48.581 302.1 14.7 296 16.8
2004-03-12 08:14:39 51°19.378 2°48.545 301.6 14.7 294 16.9
2004-03-12 08:14:43 51°19.385 2°48.522 300.1 14.7 295 17.2
2004-03-12 08:14:49 51°19.394 2°48.485 300.6 14.7 295 17.4
2004-03-12 08:14:54 51°19.403 2°48.456 299.5 14.8 296 17.6
2004-03-12 08:14:59 51°19.411 2°48.426 300.3 14.8 293 17.9
2004-03-12 08:15:03 51°19.418 2°48.403 299.9 14.7 295 17.9
2004-03-12 08:15:09 51°19.428 2°48.367 299.9 14.8 294 18.1
2004-03-12 08:15:13 51°19.435 2°48.344 300 14.7 295 18.2
2004-03-12 08:15:19 51°19.445 2°48.308 300.3 14.7 294 18.5
2004-03-12 08:15:23 51°19.452 2°48.284 300.1 14.8 294 18.8
2004-03-12 08:15:29 51°19.462 2°48.248 300 14.8 294 19
2004-03-12 08:15:33 51°19.469 2°48.224 300 14.8 295 19.2
2004-03-12 08:15:39 51°19.479 2°48.188 300 14.8 294 19.4
2004-03-12 08:15:43 51°19.486 2°48.165 300.4 14.7 295 19.8
2004-03-12 08:15:49 51°19.496 2°48.129 300.7 14.8 295 19.9
2004-03-12 08:15:53 51°19.503 2°48.106 300.4 14.8 295 20.1
2004-03-12 08:15:59 51°19.514 2°48.07 300.3 14.7 294 20.4
2004-03-12 08:16:03 51°19.521 2°48.046 300 14.7 295 20.6
2004-03-12 08:16:09 51°19.531 2°48.011 300.6 14.7 295 20.6
2004-03-12 08:16:13 51°19.538 2°47.987 300.8 14.7 295 20.7
2004-03-12 08:16:19 51°19.548 2°47.952 300.5 14.7 296 20.8
2004-03-12 08:16:23 51°19.555 2°47.928 300.4 14.8 294 21
2004-03-12 08:16:29 51°19.566 2°47.892 300.6 15 295 21.1
2004-03-12 08:16:33 51°19.573 2°47.867 300.3 15 295 21.1
2004-03-12 08:16:39 51°19.584 2°47.831 300.3 15.1 296 21.1
2004-03-12 08:16:43 51°19.59 2°47.807 300.4 15.1 295 21.2
2004-03-12 08:16:49 51°19.602 2°47.772 300.9 15 298 21.3
2004-03-12 08:16:54 51°19.611 2°47.742 302.6 15 296 21.2
2004-03-12 08:16:59 51°19.62 2°47.712 301.8 14.9 296 21.3
2004-03-12 08:17:03 51°19.628 2°47.689 301.5 14.9 297 21.2
2004-03-12 08:17:09 51°19.639 2°47.653 301.4 14.9 295 21.4
2004-03-12 08:17:13 51°19.646 2°47.629 301 14.9 295 21.4
2004-03-12 08:17:19 51°19.656 2°47.593 300.5 14.9 295 21.4
2004-03-12 08:17:23 51°19.663 2°47.57 300.3 14.8 296 21.4
2004-03-12 08:17:29 51°19.674 2°47.535 301 14.8 296 21.3
2004-03-12 08:17:34 51°19.683 2°47.505 301.3 14.8 296 21.3
2004-03-12 08:17:39 51°19.692 2°47.476 301.1 14.8 295 21.3
2004-03-12 08:17:43 51°19.699 2°47.452 300.3 14.8 296 21.2
2004-03-12 08:17:49 51°19.71 2°47.417 300.2 14.8 295 21.3
2004-03-12 08:17:53 51°19.718 2°47.394 301.4 14.8 298 21.3
2004-03-12 08:17:59 51°19.728 2°47.358 300.8 14.8 295 21.3
2004-03-12 08:18:03 51°19.736 2°47.335 301.2 14.7 297 21.1
2004-03-12 08:18:09 51°19.746 2°47.3 300.8 14.7 297 21
2004-03-12 08:18:13 51°19.754 2°47.277 300.5 14.7 297 21
2004-03-12 08:18:19 51°19.764 2°47.242 301.5 14.7 297 21
2004-03-12 08:18:24 51°19.773 2°47.213 301.2 14.7 296 20.9
2004-03-12 08:18:29 51°19.782 2°47.184 301.5 14.7 297 20.7
2004-03-12 08:18:33 51°19.79 2°47.161 300.8 14.6 298 20.7
2004-03-12 08:18:39 51°19.8 2°47.125 301.2 14.7 294 20.3
2004-03-12 08:18:43 51°19.806 2°47.101 298.5 14.7 294 20.3
2004-03-12 08:18:49 51°19.815 2°47.065 297.1 14.7 291 20.5
2004-03-12 08:18:54 51°19.823 2°47.035 296.1 14.7 292 20.4
2004-03-12 08:18:59 51°19.83 2°47.005 295.6 14.6 290 20.2
2004-03-12 08:19:04 51°19.836 2°46.974 294.6 14.6 290 20
2004-03-12 08:19:09 51°19.843 2°46.944 293.7 14.5 290 19.7
2004-03-12 08:19:13 51°19.849 2°46.92 293.4 14.5 290 19.4
2004-03-12 08:19:19 51°19.857 2°46.884 293.9 14.5 289 19.2
2004-03-12 08:19:23 51°19.862 2°46.86 294.1 14.4 290 18
2004-03-12 08:19:29 51°19.87 2°46.824 293.6 14.4 291 19
2004-03-12 08:19:34 51°19.876 2°46.794 294.1 14.4 288 18.9
2004-03-12 08:19:39 51°19.883 2°46.763 292.9 14.5 289 18.4
2004-03-12 08:19:43 51°19.889 2°46.739 293.2 14.6 290 17.4
2004-03-12 08:19:49 51°19.897 2°46.703 293.8 14.5 290 17.9
2004-03-12 08:19:54 51°19.904 2°46.672 293.8 14.6 290 17.7
2004-03-12 08:19:59 51°19.911 2°46.642 294.4 14.7 291 17.3
2004-03-12 08:20:03 51°19.917 2°46.618 295.1 14.7 291 15.8
2004-03-12 08:20:09 51°19.925 2°46.581 295.3 14.6 290 17
2004-03-12 08:20:13 51°19.931 2°46.557 294.8 14.6 290 15.6
2004-03-12 08:20:18 51°19.938 2°46.527 295 14.6 291 15.6
2004-03-12 08:20:23 51°19.944 2°46.496 293.5 14.6 287 15.6
2004-03-12 08:20:29 51°19.95 2°46.458 290.3 14.6 286 13.8
2004-03-12 08:20:33 51°19.954 2°46.433 289.5 14.5 282 14.8
2004-03-12 08:20:39 51°19.959 2°46.395 287.7 14.6 282 14.1
2004-03-12 08:20:43 51°19.962 2°46.37 285.9 14.6 281 15.4
2004-03-12 08:20:49 51°19.966 2°46.331 285.6 14.7 280 15.2
2004-03-12 08:20:53 51°19.97 2°46.306 284.1 14.7 282 14.8
2004-03-12 08:20:59 51°19.974 2°46.267 284.5 14.8 280 13.1
2004-03-12 08:21:03 51°19.977 2°46.242 284.2 14.8 281 13.6
2004-03-12 08:21:09 51°19.982 2°46.203 284.8 14.6 281 13.3
2004-03-12 08:21:14 51°19.986 2°46.172 285.8 14.7 282 12.6
2004-03-12 08:21:19 51°19.989 2°46.139 285.5 14.7 279 11.7
2004-03-12 08:21:23 51°19.99 2°46.113 282.1 14.7 275 13.2
2004-03-12 08:21:29 51°19.991 2°46.074 278.1 14.7 273 13
2004-03-12 08:21:33 51°19.991 2°46.048 274.7 14.7 272 13.4
2004-03-12 08:21:39 51°19.988 2°46.009 271.9 14.8 264 14
2004-03-12 08:21:43 51°19.987 2°45.983 267.8 14.9 265 13.6
2004-03-12 08:21:49 51°19.982 2°45.944 264.2 14.9 265 13.5
2004-03-12 08:21:54 51°19.977 2°45.913 262.3 14.5 255 10.6
2004-03-12 08:21:59 51°19.971 2°45.882 258.2 14.5 253 13.9
2004-03-12 08:22:03 51°19.965 2°45.859 254.2 14.5 251 13.1
2004-03-12 08:22:09 51°19.955 2°45.823 249.3 14.7 245 14
2004-03-12 08:22:13 51°19.948 2°45.8 245.8 14.7 243 13.8
2004-03-12 08:22:19 51°19.935 2°45.766 243.7 14.7 243 14.3
2004-03-12 08:22:23 51°19.928 2°45.743 241.6 14.6 242 14.4
2004-03-12 08:22:29 51°19.915 2°45.71 240.9 14.5 240 11.9
2004-03-12 08:22:33 51°19.908 2°45.688 240.3 14.5 240 12.2
2004-03-12 08:22:38 51°19.898 2°45.66 240.6 14.3 241 13.5
2004-03-12 08:22:43 51°19.888 2°45.632 240.6 14.5 240 13
2004-03-12 08:22:49 51°19.877 2°45.598 241.3 14.5 240 14.1
2004-03-12 08:22:54 51°19.867 2°45.57 242.2 14.5 240 13.2
2004-03-12 08:22:59 51°19.857 2°45.542 240.8 14.5 240 13.2
2004-03-12 08:23:03 51°19.849 2°45.519 240.9 14.7 241 13.8
2004-03-12 08:23:09 51°19.837 2°45.486 240.9 14.6 241 15.2
2004-03-12 08:23:13 51°19.83 2°45.462 241.2 14.7 241 15.5
2004-03-12 08:23:19 51°19.818 2°45.428 241.6 14.7 241 15.9
2004-03-12 08:23:23 51°19.809 2°45.405 241 14.9 239 15.5
2004-03-12 08:23:29 51°19.798 2°45.371 241.3 14.8 243 16
2004-03-12 08:23:33 51°19.789 2°45.348 242 14.8 239 17.3
2004-03-12 08:23:39 51°19.778 2°45.313 241 14.9 243 15.8
2004-03-12 08:23:43 51°19.77 2°45.291 242.3 14.8 241 16.2
2004-03-12 08:23:49 51°19.758 2°45.256 242 14.8 242 17.1
2004-03-12 08:23:53 51°19.751 2°45.233 242.4 14.6 242 18.1
2004-03-12 08:23:59 51°19.739 2°45.199 243 14.6 242 17.8
2004-03-12 08:24:03 51°19.731 2°45.176 242.1 14.8 241 18.4
2004-03-12 08:24:09 51°19.72 2°45.141 242.1 14.8 243 19.1
2004-03-12 08:24:13 51°19.712 2°45.118 243.1 14.7 242 19.5
2004-03-12 08:24:19 51°19.701 2°45.083 243.1 14.8 244 19.7
2004-03-12 08:24:23 51°19.694 2°45.06 243.8 14.7 243 19.9
2004-03-12 08:24:29 51°19.683 2°45.024 243.6 14.8 243 20
2004-03-12 08:24:34 51°19.674 2°44.995 244.2 14.8 244 20.4
2004-03-12 08:24:39 51°19.665 2°44.966 244.1 14.8 244 20.5
2004-03-12 08:24:44 51°19.656 2°44.937 244.2 14.7 244 20.7
2004-03-12 08:24:49 51°19.647 2°44.907 245 14.8 245 20.8
2004-03-12 08:24:54 51°19.638 2°44.877 245.4 14.8 244 20.8
2004-03-12 08:24:59 51°19.628 2°44.848 244.7 14.8 243 20.8
2004-03-12 08:25:03 51°19.62 2°44.825 243.3 14.8 241 20.8
2004-03-12 08:25:09 51°19.609 2°44.79 242.2 14.9 242 20.9
2004-03-12 08:25:13 51°19.602 2°44.767 243.2 14.8 243 21
2004-03-12 08:25:19 51°19.59 2°44.732 243.2 14.8 243 21.1
2004-03-12 08:25:23 51°19.583 2°44.708 243.3 14.8 244 21.1
2004-03-12 08:25:29 51°19.572 2°44.673 243.8 14.8 243 21.2
2004-03-12 08:25:34 51°19.563 2°44.644 243.7 14.7 244 21.3
2004-03-12 08:25:39 51°19.554 2°44.615 243.8 14.7 243 21.2
2004-03-12 08:25:43 51°19.547 2°44.591 244.2 14.7 244 21.4
2004-03-12 08:25:49 51°19.536 2°44.556 244.7 14.6 244 21.4
2004-03-12 08:25:54 51°19.528 2°44.527 245 14.7 245 21.4
2004-03-12 08:25:59 51°19.519 2°44.498 245.7 14.7 245 21.5
2004-03-12 08:26:03 51°19.512 2°44.475 245.4 14.5 245 21.6
2004-03-12 08:26:09 51°19.501 2°44.44 244.9 14.5 244 21.6
2004-03-12 08:26:13 51°19.495 2°44.416 244.5 14.6 245 21.6
2004-03-12 08:26:19 51°19.484 2°44.381 245.3 14.7 245 21.7
2004-03-12 08:26:24 51°19.475 2°44.352 245 14.7 244 21.7
2004-03-12 08:26:29 51°19.467 2°44.322 245.6 14.6 246 21.9
2004-03-12 08:26:34 51°19.458 2°44.294 245.2 14.7 244 21.8
2004-03-12 08:26:39 51°19.45 2°44.263 244.9 14.8 247 22
2004-03-12 08:26:43 51°19.442 2°44.24 246 14.6 244 22
2004-03-12 08:26:49 51°19.432 2°44.205 244.6 14.9 245 22
2004-03-12 08:26:53 51°19.425 2°44.181 244.7 14.7 245 22.2
2004-03-12 08:26:59 51°19.414 2°44.147 244.5 14.6 243 22.1
2004-03-12 08:27:03 51°19.407 2°44.123 243.8 14.7 246 22.3
2004-03-12 08:27:09 51°19.396 2°44.088 244.4 14.7 244 22.2
2004-03-12 08:27:13 51°19.39 2°44.064 244.5 14.8 245 22.3
2004-03-12 08:27:19 51°19.379 2°44.029 245.1 14.6 244 22.3
2004-03-12 08:27:23 51°19.372 2°44.005 244.4 14.6 244 22.3
2004-03-12 08:27:29 51°19.361 2°43.969 243.5 14.9 245 22.3
2004-03-12 08:27:34 51°19.352 2°43.94 244.7 14.7 245 22.5
2004-03-12 08:27:39 51°19.343 2°43.911 244.8 14.7 243 22.4
2004-03-12 08:27:43 51°19.336 2°43.887 243.8 14.9 244 22.5
2004-03-12 08:27:49 51°19.324 2°43.852 243.4 14.9 243 22.5
2004-03-12 08:27:53 51°19.317 2°43.829 243.1 14.8 243 22.7
2004-03-12 08:27:59 51°19.305 2°43.794 242.6 14.8 243 22.7
2004-03-12 08:28:03 51°19.298 2°43.771 242.5 14.7 242 22.7
2004-03-12 08:28:09 51°19.286 2°43.736 242 14.7 242 22.7
2004-03-12 08:28:13 51°19.279 2°43.713 241.6 14.7 242 22.8
2004-03-12 08:28:19 51°19.267 2°43.679 241.9 14.5 242 22.8
2004-03-12 08:28:24 51°19.258 2°43.651 242.3 14.6 243 23
2004-03-12 08:28:29 51°19.25 2°43.621 243.3 14.5 245 23.1
2004-03-12 08:28:34 51°19.241 2°43.593 245 14.4 245 23
2004-03-12 08:28:39 51°19.233 2°43.563 245.2 14.6 245 23.1
2004-03-12 08:28:43 51°19.226 2°43.539 245.3 14.6 245 23.2
2004-03-12 08:28:49 51°19.216 2°43.504 245.4 14.5 245 23.3
2004-03-12 08:28:54 51°19.208 2°43.475 245.3 14.6 246 23.3
2004-03-12 08:28:59 51°19.2 2°43.445 245.8 14.7 246 23.4
2004-03-12 08:29:03 51°19.194 2°43.421 246.8 14.6 247 23.5
2004-03-12 08:29:09 51°19.184 2°43.386 247 14.6 246 23.2
2004-03-12 08:29:13 51°19.177 2°43.362 246.3 14.4 246 23.1
2004-03-12 08:29:19 51°19.166 2°43.329 246.1 14.3 243 23.2
2004-03-12 08:29:23 51°19.158 2°43.307 241.7 14.3 238 23.1
2004-03-12 08:29:29 51°19.145 2°43.275 238 14.3 238 23.2
2004-03-12 08:29:33 51°19.136 2°43.254 236.3 14.2 235 23.2
2004-03-12 08:29:39 51°19.122 2°43.224 234.9 14.3 234 23.1
2004-03-12 08:29:43 51°19.113 2°43.203 233.7 14.2 234 23.1
2004-03-12 08:29:49 51°19.098 2°43.174 232.2 14.2 234 23.2
2004-03-12 08:29:54 51°19.086 2°43.149 230.8 14.4 234 23.2
2004-03-12 08:29:59 51°19.074 2°43.123 231.9 14.4 233 23
2004-03-12 08:30:03 51°19.064 2°43.104 231.5 14.4 232 23
2004-03-12 08:30:09 51°19.049 2°43.074 231.1 14.3 233 23
2004-03-12 08:30:14 51°19.037 2°43.05 230.4 14.2 231 23.1
2004-03-12 08:30:19 51°19.025 2°43.025 229.9 14.2 231 23.1
2004-03-12 08:30:23 51°19.015 2°43.005 230.8 14.3 232 23.2
2004-03-12 08:30:29 51°19 2°42.975 231.5 14.3 233 23.1
2004-03-12 08:30:34 51°18.988 2°42.95 232.1 14.3 233 23.2
2004-03-12 08:30:39 51°18.976 2°42.925 232.5 14.2 233 23.2
2004-03-12 08:30:43 51°18.967 2°42.905 232 14.2 232 23.1
2004-03-12 08:30:49 51°18.952 2°42.874 232.3 14.4 234 23.1
2004-03-12 08:30:54 51°18.94 2°42.849 232.9 14.4 232 23.2
2004-03-12 08:30:59 51°18.928 2°42.823 231.8 14.5 232 23
2004-03-12 08:31:03 51°18.919 2°42.803 232.1 14.3 233 23
2004-03-12 08:31:09 51°18.904 2°42.772 232.2 14.3 233 23
2004-03-12 08:31:13 51°18.895 2°42.752 232.3 14.4 233 23
2004-03-12 08:31:19 51°18.881 2°42.721 232.4 14.4 234 23
2004-03-12 08:31:23 51°18.872 2°42.7 233.5 14.5 235 23
2004-03-12 08:31:29 51°18.858 2°42.668 233.7 14.6 237 23
2004-03-12 08:31:34 51°18.847 2°42.641 235 14.5 236 23
2004-03-12 08:31:39 51°18.835 2°42.614 235.5 14.6 236 22.9
2004-03-12 08:31:43 51°18.828 2°42.592 236.6 14.6 239 22.9
2004-03-12 08:31:49 51°18.815 2°42.559 237.3 14.5 239 22.8
2004-03-12 08:31:53 51°18.807 2°42.537 238.6 14.4 240 22.7
2004-03-12 08:31:59 51°18.795 2°42.504 239.4 14.5 240 22.8
2004-03-12 08:32:03 51°18.787 2°42.482 240 14.4 239 22.9
2004-03-12 08:32:09 51°18.774 2°42.449 239.5 14.3 240 22.8
2004-03-12 08:32:14 51°18.764 2°42.422 238.9 14.4 240 22.8
2004-03-12 08:32:19 51°18.755 2°42.394 240.2 14.4 241 22.8
2004-03-12 08:32:23 51°18.747 2°42.371 240.8 14.4 241 22.8
2004-03-12 08:32:29 51°18.735 2°42.338 241.6 14.3 241 22.8
2004-03-12 08:32:33 51°18.727 2°42.317 241.1 14.3 237 22.7
2004-03-12 08:32:39 51°18.715 2°42.284 239 14.4 240 22.6
2004-03-12 08:32:43 51°18.706 2°42.262 239.6 14.4 237 22.8
2004-03-12 08:32:49 51°18.693 2°42.23 238.6 14.4 237 22.8
2004-03-12 08:32:54 51°18.682 2°42.203 238.5 14.4 238 22.7
2004-03-12 08:32:59 51°18.672 2°42.176 239.5 14.4 238 22.8
2004-03-12 08:33:03 51°18.663 2°42.155 239.8 14.3 238 22.7
2004-03-12 08:33:09 51°18.651 2°42.122 239.8 14.3 239 22.7
2004-03-12 08:33:13 51°18.643 2°42.1 240.8 14.3 239 22.6
2004-03-12 08:33:19 51°18.631 2°42.067 241.4 14.3 239 22.5
2004-03-12 08:33:23 51°18.623 2°42.045 241.5 14.3 240 22.4
2004-03-12 08:33:29 51°18.611 2°42.013 240.6 14.3 238 22.4
2004-03-12 08:33:34 51°18.6 2°41.986 239.8 14.4 238 22.2
2004-03-12 08:33:39 51°18.589 2°41.959 239.7 14.4 238 21.9
2004-03-12 08:33:43 51°18.581 2°41.938 239.8 14.4 238 21.9
2004-03-12 08:33:49 51°18.568 2°41.905 240.2 14.4 239 22.2
2004-03-12 08:33:54 51°18.558 2°41.877 240.3 14.5 238 21.7
2004-03-12 08:33:59 51°18.548 2°41.85 240.6 14.6 239 22.1
2004-03-12 08:34:03 51°18.539 2°41.828 240.9 14.6 239 22.2
2004-03-12 08:34:09 51°18.527 2°41.795 240.9 14.4 239 22
2004-03-12 08:34:13 51°18.518 2°41.773 240.3 14.6 239 21.2
2004-03-12 08:34:19 51°18.505 2°41.74 240.3 14.6 239 21.6
2004-03-12 08:34:23 51°18.497 2°41.718 239.7 14.6 237 21.5
2004-03-12 08:34:29 51°18.484 2°41.685 239.2 14.5 238 20.8
2004-03-12 08:34:34 51°18.473 2°41.658 239.9 14.6 239 21.6
2004-03-12 08:34:39 51°18.463 2°41.629 241.2 14.7 242 20.2
2004-03-12 08:34:43 51°18.455 2°41.608 241.5 14.5 238 21
2004-03-12 08:34:49 51°18.444 2°41.574 241.3 14.5 241 21.1
2004-03-12 08:34:53 51°18.435 2°41.552 242 14.5 241 16.8
2004-03-12 08:34:59 51°18.423 2°41.519 241.2 14.5 240 19.5
2004-03-12 08:35:03 51°18.414 2°41.496 240.6 14.7 240 18.6
2004-03-12 08:35:09 51°18.402 2°41.463 241.6 14.7 241 19.3
2004-03-12 08:35:13 51°18.393 2°41.441 240.4 14.6 238 18.7
2004-03-12 08:35:19 51°18.381 2°41.408 240 14.5 239 20.6
2004-03-12 08:35:25 51°18.368 2°41.375 239.8 14.5 238 19.9
2004-03-12 08:35:29 51°18.36 2°41.353 239.7 14.6 239 19.7
2004-03-12 08:35:33 51°18.351 2°41.331 240.4 14.5 239 16.7
2004-03-12 08:35:39 51°18.339 2°41.297 240.4 14.5 240 18.8
2004-03-12 08:35:43 51°18.331 2°41.275 241.2 14.5 240 19.3
2004-03-12 08:35:49 51°18.319 2°41.241 240.9 14.8 239 19.5
2004-03-12 08:35:54 51°18.309 2°41.213 241.6 14.6 240 19.5
2004-03-12 08:35:59 51°18.298 2°41.186 241.1 14.5 238 17.7
2004-03-12 08:36:03 51°18.29 2°41.163 240.1 14.6 239 18
2004-03-12 08:36:09 51°18.278 2°41.129 241.3 14.7 241 18.6
2004-03-12 08:36:14 51°18.267 2°41.101 241.8 14.6 239 19
2004-03-12 08:36:19 51°18.258 2°41.073 241.2 14.6 241 19
2004-03-12 08:36:24 51°18.247 2°41.045 241.9 14.6 241 18.3
2004-03-12 08:36:29 51°18.237 2°41.018 241.5 14.6 239 16.2
2004-03-12 08:36:34 51°18.226 2°40.99 240.4 14.6 238 17.6
2004-03-12 08:36:39 51°18.216 2°40.962 239.8 14.5 238 16.8
2004-03-12 08:36:43 51°18.207 2°40.94 239.8 14.5 239 16
2004-03-12 08:36:49 51°18.195 2°40.907 239 14.9 240 16.6
2004-03-12 08:36:54 51°18.185 2°40.878 240.1 14.7 241 13.9
2004-03-12 08:36:59 51°18.175 2°40.851 241.6 14.5 240 14.8
2004-03-12 08:37:03 51°18.167 2°40.828 240.8 14.6 240 13.2
2004-03-12 08:37:09 51°18.155 2°40.794 240.6 14.6 240 15.4
2004-03-12 08:37:13 51°18.147 2°40.772 241.1 14.8 240 16.3
2004-03-12 08:37:19 51°18.134 2°40.738 241.1 14.7 240 16.5
2004-03-12 08:37:24 51°18.123 2°40.71 240.4 14.8 239 14.6
2004-03-12 08:37:29 51°18.114 2°40.681 240.6 14.4 240 15.8
2004-03-12 08:37:33 51°18.106 2°40.66 240.4 14.4 240 13.8
2004-03-12 08:37:39 51°18.094 2°40.626 240.2 14.6 241 15.5
2004-03-12 08:37:43 51°18.086 2°40.603 241.6 14.6 241 16.7
2004-03-12 08:37:49 51°18.074 2°40.57 241.9 14.6 241 15.2
2004-03-12 08:37:53 51°18.066 2°40.547 241.3 14.5 240 16.2
2004-03-12 08:37:59 51°18.053 2°40.514 241 14.7 239 17
2004-03-12 08:38:03 51°18.045 2°40.491 239.5 14.7 239 16.5
2004-03-12 08:38:09 51°18.032 2°40.458 239.8 14.7 240 15
2004-03-12 08:38:14 51°18.021 2°40.43 239.2 14.7 239 16
2004-03-12 08:38:19 51°18.011 2°40.402 238.7 14.9 239 14.1
2004-03-12 08:38:23 51°18.002 2°40.38 239.5 14.9 239 15.7
2004-03-12 08:38:29 51°17.989 2°40.346 239.2 14.8 239 16.5
2004-03-12 08:38:34 51°17.979 2°40.318 239.2 14.9 239 15.9
2004-03-12 08:38:39 51°17.969 2°40.29 239.5 14.9 239 16.1
2004-03-12 08:38:43 51°17.96 2°40.267 240.2 14.8 240 16.3
2004-03-12 08:38:49 51°17.947 2°40.233 239.8 15 239 16.6
2004-03-12 08:38:54 51°17.937 2°40.205 240.2 14.8 240 16.8
2004-03-12 08:38:59 51°17.927 2°40.176 240.3 14.8 241 17.4
2004-03-12 08:39:03 51°17.918 2°40.153 240.6 14.9 240 16
2004-03-12 08:39:09 51°17.907 2°40.121 240.3 14.7 239 16.6
2004-03-12 08:39:14 51°17.898 2°40.096 240.3 12.9 241 17
2004-03-12 08:39:19 51°17.889 2°40.073 240.4 12.3 239 17.4
2004-03-12 08:39:24 51°17.881 2°40.052 238.3 12.3 239 17.5
2004-03-12 08:39:29 51°17.873 2°40.032 237.3 10.6 238 16.6
2004-03-12 08:39:33 51°17.867 2°40.018 236 10 235 16.6
2004-03-12 08:39:39 51°17.858 2°39.997 233.9 9.6 235 16.9
2004-03-12 08:39:43 51°17.852 2°39.985 232.6 8.9 234 17
2004-03-12 08:39:49 51°17.843 2°39.967 231.4 8.8 234 17.2
2004-03-12 08:39:53 51°17.838 2°39.955 229.3 8.2 232 17.5
2004-03-12 08:39:59 51°17.829 2°39.939 228.6 7.8 233 17.8
2004-03-12 08:40:03 51°17.825 2°39.929 227.3 7.5 233 18
2004-03-12 08:40:09 51°17.817 2°39.915 226.4 6.8 228 17.9
2004-03-12 08:40:13 51°17.813 2°39.905 224.8 6.8 231 18.1
2004-03-12 08:40:19 51°17.806 2°39.893 223.2 6.3 228 17.7
2004-03-12 08:40:23 51°17.802 2°39.885 221.5 6 229 17.7
2004-03-12 08:40:29 51°17.795 2°39.874 220.2 5.5 228 17.8
2004-03-12 08:40:34 51°17.791 2°39.866 219.1 4.8 230 17.8
2004-03-12 08:40:39 51°17.787 2°39.859 217.6 4.4 229 17.3
2004-03-12 08:40:43 51°17.784 2°39.854 213.7 3.8 230 17.7
2004-03-12 08:40:49 51°17.781 2°39.848 211.2 3.7 231 17.1
2004-03-12 08:40:54 51°17.778 2°39.843 207.9 3 230 16.7
2004-03-12 08:40:59 51°17.776 2°39.838 204.5 3 230 16.3
2004-03-12 08:41:03 51°17.774 2°39.835 201.1 2.3 237 16.4
2004-03-12 08:41:09 51°17.773 2°39.83 197.4 2 243 16.7
2004-03-12 08:41:13 51°17.772 2°39.827 194.5 2 247 16.9
2004-03-12 08:41:19 51°17.771 2°39.822 192.3 1.9 247 16.8
2004-03-12 08:41:23 51°17.77 2°39.819 190.8 1.9 249 16.9
2004-03-12 08:41:29 51°17.769 2°39.815 190.2 1.9 248 16.9
2004-03-12 08:41:33 51°17.768 2°39.812 189.2 1.8 248 17.1
2004-03-12 08:41:38 51°17.767 2°39.808 188.5 1.8 248 17
2004-03-12 08:41:43 51°17.766 2°39.804 188 1.8 248 17.1
2004-03-12 08:41:49 51°17.766 2°39.8 187.9 1.8 248 17.1
2004-03-12 08:41:54 51°17.765 2°39.796 187.8 1.7 250 17
2004-03-12 08:41:59 51°17.764 2°39.793 187.9 1.7 250 17.2
2004-03-12 08:42:04 51°17.763 2°39.789 187.9 1.8 251 17.3
2004-03-12 08:42:09 51°17.762 2°39.786 188.1 1.8 251 17.4
2004-03-12 08:42:14 51°17.762 2°39.782 188.4 1.7 251 17.4
2004-03-12 08:42:19 51°17.761 2°39.779 188.5 1.7 251 17.4
2004-03-12 08:42:23 51°17.76 2°39.776 188.6 1.6 253 17.4
2004-03-12 08:42:29 51°17.76 2°39.771 188.7 1.6 253 17.7
2004-03-12 08:42:34 51°17.759 2°39.768 188.9 1.6 255 17.6
2004-03-12 08:42:39 51°17.758 2°39.764 189.4 1.7 257 17.6
2004-03-12 08:42:44 51°17.758 2°39.761 189.7 1.6 256 17.8
2004-03-12 08:42:49 51°17.757 2°39.757 190.1 1.7 257 17.9
2004-03-12 08:42:54 51°17.757 2°39.754 190.5 1.6 256 17.9
2004-03-12 08:42:59 51°17.756 2°39.75 190.8 1.6 256 18.1
2004-03-12 08:43:03 51°17.756 2°39.747 190.9 1.7 257 17.9
2004-03-12 08:43:09 51°17.755 2°39.743 191.3 1.7 257 18.2
2004-03-12 08:43:13 51°17.755 2°39.74 191.6 1.7 259 17.9
2004-03-12 08:43:19 51°17.754 2°39.735 192.3 1.7 258 18.2
2004-03-12 08:43:24 51°17.754 2°39.732 192.6 1.7 260 18
2004-03-12 08:43:29 51°17.753 2°39.728 193 1.7 260 18.2
2004-03-12 08:43:34 51°17.753 2°39.724 193.4 1.7 261 18.1
2004-03-12 08:43:39 51°17.753 2°39.721 193.7 1.7 260 18.4
2004-03-12 08:43:44 51°17.752 2°39.717 194.1 1.7 260 18.5
2004-03-12 08:43:49 51°17.752 2°39.713 194.4 1.7 262 18.2
2004-03-12 08:43:54 51°17.751 2°39.709 194.5 1.7 261 18.5
2004-03-12 08:43:59 51°17.751 2°39.705 194.8 1.8 263 18.7
2004-03-12 08:44:03 51°17.751 2°39.702 195.4 1.8 265 18.4
2004-03-12 08:44:09 51°17.751 2°39.698 196 1.8 265 18.7
2004-03-12 08:44:13 51°17.75 2°39.694 196.2 1.8 264 18.5
2004-03-12 08:44:19 51°17.75 2°39.69 196.6 1.8 266 18.6
2004-03-12 08:44:24 51°17.75 2°39.686 197.2 1.8 264 18.4
2004-03-12 08:44:29 51°17.75 2°39.682 197.4 1.8 264 18.6
2004-03-12 08:44:34 51°17.75 2°39.678 197.8 1.8 265 18.5
2004-03-12 08:44:39 51°17.749 2°39.674 198.3 1.7 266 18.5
2004-03-12 08:44:43 51°17.749 2°39.671 198.7 1.8 267 18.4
2004-03-12 08:44:49 51°17.749 2°39.666 199.5 1.9 269 18.5
2004-03-12 08:44:54 51°17.749 2°39.662 200.4 1.8 269 18.4
2004-03-12 08:44:59 51°17.749 2°39.658 201.6 1.8 269 18.4
2004-03-12 08:45:03 51°17.749 2°39.655 202.9 1.8 268 18.5
2004-03-12 08:45:09 51°17.749 2°39.65 203.9 1.8 268 18.5
2004-03-12 08:45:13 51°17.749 2°39.647 204.6 1.7 270 18.5
2004-03-12 08:45:19 51°17.749 2°39.642 205.3 1.7 270 18.4
2004-03-12 08:45:23 51°17.749 2°39.639 206.2 1.8 269 18.6
2004-03-12 08:45:29 51°17.749 2°39.635 207.5 1.7 271 18.4
2004-03-12 08:45:33 51°17.749 2°39.631 208.3 1.8 270 18
2004-03-12 08:45:39 51°17.749 2°39.627 208.9 1.8 270 17.8
2004-03-12 08:45:43 51°17.749 2°39.623 209.5 1.8 270 17.5
2004-03-12 08:45:49 51°17.749 2°39.618 210.4 1.8 271 17.2
2004-03-12 08:45:53 51°17.749 2°39.615 210.9 1.8 272 16.9
2004-03-12 08:45:59 51°17.749 2°39.611 211.7 1.8 273 16.8
2004-03-12 08:46:03 51°17.75 2°39.607 212.7 1.8 273 16.5
2004-03-12 08:46:09 51°17.75 2°39.602 213.5 1.9 273 16.3
2004-03-12 08:46:13 51°17.75 2°39.599 213.9 1.9 273 16.2
2004-03-12 08:46:19 51°17.75 2°39.594 214.7 1.9 272 16.1
2004-03-12 08:46:23 51°17.75 2°39.59 215.3 1.9 273 16
2004-03-12 08:46:29 51°17.75 2°39.585 215.9 1.9 274 16.1
2004-03-12 08:46:34 51°17.75 2°39.581 216.5 2 274 16.1
2004-03-12 08:46:39 51°17.75 2°39.577 216.9 1.9 272 16
2004-03-12 08:46:44 51°17.751 2°39.573 217.4 2 273 16
2004-03-12 08:46:49 51°17.751 2°39.568 217.8 1.9 273 16
2004-03-12 08:46:54 51°17.751 2°39.564 218.1 1.9 273 15.9
2004-03-12 08:46:59 51°17.751 2°39.56 218.4 1.9 272 15.9
2004-03-12 08:47:03 51°17.751 2°39.557 218.5 2 272 16
2004-03-12 08:47:09 51°17.751 2°39.552 219 1.9 273 16
2004-03-12 08:47:14 51°17.751 2°39.547 219.3 1.9 273 16.1
2004-03-12 08:47:19 51°17.751 2°39.543 219.5 1.9 272 16.1
2004-03-12 08:47:24 51°17.752 2°39.539 219.9 1.9 272 16.1
2004-03-12 08:47:29 51°17.752 2°39.535 220 1.9 271 16.5
2004-03-12 08:47:33 51°17.752 2°39.531 220.3 1.9 272 16.6
2004-03-12 08:47:39 51°17.752 2°39.526 220.4 1.9 272 16.7
2004-03-12 08:47:43 51°17.752 2°39.523 220.3 1.9 272 16.9
2004-03-12 08:47:49 51°17.752 2°39.518 220.6 1.9 271 17
2004-03-12 08:47:54 51°17.752 2°39.514 220.5 1.9 271 17.2
2004-03-12 08:47:59 51°17.752 2°39.51 220.6 1.8 270 17.4
2004-03-12 08:48:04 51°17.752 2°39.506 220.6 1.9 271 17.7
2004-03-12 08:48:09 51°17.752 2°39.502 220.6 1.8 270 18
2004-03-12 08:48:13 51°17.753 2°39.498 220.6 1.9 272 18.1
2004-03-12 08:48:19 51°17.753 2°39.494 220.8 1.9 272 18.4
2004-03-12 08:48:23 51°17.753 2°39.49 220.8 1.9 270 18.6
2004-03-12 08:48:29 51°17.753 2°39.486 221 1.9 271 18.8
2004-03-12 08:48:33 51°17.753 2°39.482 221.2 1.8 270 19
2004-03-12 08:48:39 51°17.753 2°39.477 221.2 1.8 270 19.1
2004-03-12 08:48:43 51°17.753 2°39.474 221.2 1.8 270 19.1
2004-03-12 08:48:49 51°17.753 2°39.469 221.3 1.9 271 19.6
2004-03-12 08:48:54 51°17.753 2°39.465 221.1 1.8 271 19.5
2004-03-12 08:48:59 51°17.752 2°39.461 220.8 1.8 271 19.8
2004-03-12 08:49:03 51°17.752 2°39.458 220.6 1.8 269 19.8
2004-03-12 08:49:09 51°17.752 2°39.453 220.1 1.8 269 20.2
2004-03-12 08:49:13 51°17.752 2°39.45 219.8 1.8 269 20.3
2004-03-12 08:49:19 51°17.752 2°39.445 219.6 1.8 269 20.4
2004-03-12 08:49:23 51°17.752 2°39.442 219.4 1.8 268 20.7
2004-03-12 08:49:29 51°17.752 2°39.437 219.1 1.8 268 20.5
2004-03-12 08:49:33 51°17.752 2°39.434 218.7 1.8 268 20.7
2004-03-12 08:49:39 51°17.752 2°39.429 218.4 1.8 267 21.1
2004-03-12 08:49:43 51°17.752 2°39.426 218 1.9 269 20.8
2004-03-12 08:49:49 51°17.751 2°39.421 217.7 1.8 268 20.8
2004-03-12 08:49:53 51°17.751 2°39.418 217.5 1.8 268 21.2
2004-03-12 08:49:59 51°17.751 2°39.413 217.4 1.7 268 21.5
2004-03-12 08:50:03 51°17.751 2°39.41 217.2 1.8 268 21.3
2004-03-12 08:50:09 51°17.751 2°39.405 217.2 1.8 268 21.5
2004-03-12 08:50:13 51°17.751 2°39.402 217.4 1.8 269 21.3
2004-03-12 08:50:19 51°17.751 2°39.397 217.3 1.8 268 21.5
2004-03-12 08:50:23 51°17.751 2°39.394 217.6 1.8 268 21.6
2004-03-12 08:50:29 51°17.751 2°39.389 217.5 1.8 267 22.1
2004-03-12 08:50:33 51°17.751 2°39.386 217.3 1.8 267 21.9
2004-03-12 08:50:39 51°17.751 2°39.381 217.3 1.8 269 21.7
2004-03-12 08:50:44 51°17.75 2°39.377 217.2 1.8 265 21.9
2004-03-12 08:50:49 51°17.75 2°39.373 216.9 1.8 268 22.3
2004-03-12 08:50:54 51°17.75 2°39.369 216.4 1.8 268 22.2
2004-03-12 08:50:59 51°17.75 2°39.365 216.4 1.8 268 22.2
2004-03-12 08:51:03 51°17.75 2°39.362 216.3 1.9 268 22.1
2004-03-12 08:51:09 51°17.75 2°39.357 216.2 1.8 267 22.2
2004-03-12 08:51:14 51°17.75 2°39.353 216.2 1.9 267 22.7
2004-03-12 08:51:19 51°17.749 2°39.349 216 1.7 265 22.2
2004-03-12 08:51:23 51°17.749 2°39.346 215.5 1.9 268 22.3
2004-03-12 08:51:29 51°17.749 2°39.341 215 1.9 267 22.8
2004-03-12 08:51:33 51°17.749 2°39.338 214.3 1.8 265 22.3
2004-03-12 08:51:39 51°17.749 2°39.333 213.9 1.8 266 22.6
2004-03-12 08:51:43 51°17.749 2°39.33 213 1.8 264 22.4
2004-03-12 08:51:49 51°17.748 2°39.325 212.1 1.8 264 22.5
2004-03-12 08:51:54 51°17.748 2°39.321 210.9 1.8 263 22.8
2004-03-12 08:51:59 51°17.748 2°39.317 210 1.8 262 22.6
2004-03-12 08:52:03 51°17.747 2°39.314 209.2 1.8 262 22.9
2004-03-12 08:52:09 51°17.747 2°39.309 208.4 1.8 261 22.9
2004-03-12 08:52:13 51°17.747 2°39.306 207.5 1.8 261 23.3
2004-03-12 08:52:19 51°17.746 2°39.301 206.8 1.8 261 23.3
2004-03-12 08:52:23 51°17.746 2°39.298 205.8 1.8 260 23.3
2004-03-12 08:52:29 51°17.745 2°39.293 205.3 1.8 261 23.5
2004-03-12 08:52:33 51°17.745 2°39.29 204.6 1.8 260 23.6
2004-03-12 08:52:39 51°17.745 2°39.286 203.9 1.8 259 23.5
2004-03-12 08:52:43 51°17.744 2°39.282 203.2 1.8 259 23.7
2004-03-12 08:52:49 51°17.743 2°39.278 202.2 1.9 259 23.6
2004-03-12 08:52:53 51°17.743 2°39.275 201.5 1.7 258 23.7
2004-03-12 08:52:59 51°17.742 2°39.27 200.5 1.8 259 23.7
2004-03-12 08:53:03 51°17.742 2°39.267 199.6 1.8 259 23.8
2004-03-12 08:53:09 51°17.741 2°39.263 198.8 1.8 259 23.8
2004-03-12 08:53:14 51°17.741 2°39.259 198 1.7 257 23.8
2004-03-12 08:53:19 51°17.74 2°39.255 197.3 1.8 257 24
2004-03-12 08:53:23 51°17.74 2°39.252 196.6 1.8 258 24
2004-03-12 08:53:29 51°17.739 2°39.247 196.2 1.8 257 24
2004-03-12 08:53:34 51°17.739 2°39.243 195.8 1.7 256 24
2004-03-12 08:53:39 51°17.738 2°39.239 195.2 1.8 258 24
2004-03-12 08:53:43 51°17.738 2°39.236 194.6 1.8 257 24
2004-03-12 08:53:49 51°17.737 2°39.232 194.1 1.8 256 24
2004-03-12 08:53:54 51°17.736 2°39.228 193.7 1.8 256 24.1
2004-03-12 08:53:59 51°17.736 2°39.224 193.2 1.8 256 24
2004-03-12 08:54:03 51°17.735 2°39.221 192.9 1.8 256 24.1
2004-03-12 08:54:09 51°17.734 2°39.216 192.3 1.8 255 24.2
2004-03-12 08:54:14 51°17.734 2°39.213 192.1 1.8 256 24.2
2004-03-12 08:54:19 51°17.733 2°39.209 191.5 1.7 255 24.2
2004-03-12 08:54:23 51°17.733 2°39.206 191.1 1.7 256 24.3
2004-03-12 08:54:29 51°17.732 2°39.202 190.5 1.7 253 24.3
2004-03-12 08:54:33 51°17.731 2°39.199 190.1 1.7 254 24.3
2004-03-12 08:54:39 51°17.731 2°39.195 189.4 1.7 254 24.3
2004-03-12 08:54:43 51°17.73 2°39.192 188.5 1.7 253 24.3
2004-03-12 08:54:49 51°17.729 2°39.187 187.8 1.6 253 24.5
2004-03-12 08:54:53 51°17.729 2°39.184 186.9 1.7 254 24.3
2004-03-12 08:54:59 51°17.728 2°39.18 186.1 1.7 254 24.4
2004-03-12 08:55:04 51°17.727 2°39.177 185.6 1.6 252 24.4
2004-03-12 08:55:09 51°17.727 2°39.173 184.9 1.6 253 24.5
2004-03-12 08:55:14 51°17.726 2°39.17 184.2 1.6 253 24.5
2004-03-12 08:55:19 51°17.725 2°39.166 183.3 1.7 253 24.6
2004-03-12 08:55:23 51°17.724 2°39.163 182.9 1.7 252 24.6
2004-03-12 08:55:29 51°17.724 2°39.159 182.4 1.7 252 24.6
2004-03-12 08:55:33 51°17.723 2°39.156 181.8 1.6 252 24.6
2004-03-12 08:55:39 51°17.722 2°39.152 181.3 1.7 252 24.7
2004-03-12 08:55:43 51°17.721 2°39.149 180.5 1.7 247 24.7
2004-03-12 08:55:49 51°17.72 2°39.145 179.5 1.7 247 24.6
2004-03-12 08:55:54 51°17.718 2°39.142 177.8 1.8 228 24.7
2004-03-12 08:55:59 51°17.716 2°39.139 175.2 1.8 228 24.6
2004-03-12 08:56:04 51°17.713 2°39.137 172.3 2 216 24.7
2004-03-12 08:56:09 51°17.711 2°39.135 168.4 2 216 24.6
2004-03-12 08:56:14 51°17.708 2°39.134 164.5 2 197 24.4
2004-03-12 08:56:19 51°17.705 2°39.134 159.8 2 197 24.4
2004-03-12 08:56:24 51°17.702 2°39.133 154.8 2.1 184 24.4
2004-03-12 08:56:29 51°17.699 2°39.134 150.5 2.1 184 24.5
2004-03-12 08:56:34 51°17.697 2°39.135 145.7 2.1 168 24.5
2004-03-12 08:56:39 51°17.694 2°39.137 140.9 2 158 24.4
2004-03-12 08:56:44 51°17.692 2°39.14 135.2 2 151 24.4
2004-03-12 08:56:49 51°17.69 2°39.143 129.6 2 140 24.4
2004-03-12 08:56:53 51°17.689 2°39.146 123.6 2 135 24.3
2004-03-12 08:56:59 51°17.688 2°39.151 117.7 2 135 24.3
2004-03-12 08:57:03 51°17.687 2°39.154 111.1 2 112 24.1
2004-03-12 08:57:09 51°17.687 2°39.16 105.2 2.1 96 24.1
2004-03-12 08:57:13 51°17.687 2°39.164 98.7 2.2 94 24
2004-03-12 08:57:19 51°17.688 2°39.171 93.1 2.5 79 24
2004-03-12 08:57:23 51°17.689 2°39.175 88.1 2.7 75 23.9
2004-03-12 08:57:29 51°17.69 2°39.183 85.8 2.7 75 24
2004-03-12 08:57:33 51°17.692 2°39.188 83.3 3.3 68 24
2004-03-12 08:57:39 51°17.695 2°39.196 81.1 3.4 64 23.9
2004-03-12 08:57:43 51°17.697 2°39.202 79.1 3.6 63 23.8
2004-03-12 08:57:49 51°17.7 2°39.211 78.2 3.6 63 23.8
2004-03-12 08:57:53 51°17.701 2°39.217 77.6 4 62 23.8
2004-03-12 08:57:59 51°17.704 2°39.227 77.4 4.1 64 23.7
2004-03-12 08:58:03 51°17.706 2°39.234 78.1 4.1 65 23.6
2004-03-12 08:58:09 51°17.709 2°39.244 79.1 4.2 67 23.4
2004-03-12 08:58:13 51°17.711 2°39.251 80.5 4.3 68 23.4
2004-03-12 08:58:19 51°17.714 2°39.262 82 4.3 70 22.9
2004-03-12 08:58:23 51°17.715 2°39.27 83.4 4.4 72 23.1
2004-03-12 08:58:29 51°17.717 2°39.281 85.3 4.4 75 22.6
2004-03-12 08:58:34 51°17.718 2°39.29 87 4.4 77 23
2004-03-12 08:58:39 51°17.719 2°39.3 89.1 4.5 80 22.9
2004-03-12 08:58:44 51°17.72 2°39.31 90.7 4.5 81 22.5
2004-03-12 08:58:49 51°17.721 2°39.32 92.6 4.5 84 22.3